sensor_id;sensor_type;location;lat;lon;timestamp;pressure;altitude;pressure_sealevel;temperature;humidity
29839;BME280;18669;53.356;-1.464;2022-12-07T00:01:32;101519.19;;;4.38;100.00
29839;BME280;18669;53.356;-1.464;2022-12-07T00:04:00;101520.97;;;4.39;100.00
29839;BME280;18669;53.356;-1.464;2022-12-07T00:06:35;101517.72;;;4.51;100.00
29839;BME280;18669;53.356;-1.464;2022-12-07T00:09:03;101523.78;;;4.50;100.00
29839;BME280;18669;53.356;-1.464;2022-12-07T00:11:29;101514.88;;;4.38;100.00
29839;BME280;18669;53.356;-1.464;2022-12-07T00:13:58;101519.41;;;4.48;100.00
29839;BME280;18669;53.356;-1.464;2022-12-07T00:16:27;101512.34;;;4.43;100.00
29839;BME280;18669;53.356;-1.464;2022-12-07T00:18:54;101515.75;;;4.39;100.00
29839;BME280;18669;53.356;-1.464;2022-12-07T00:21:23;101517.59;;;4.44;100.00
29839;BME280;18669;53.356;-1.464;2022-12-07T00:23:51;101518.41;;;4.40;100.00
29839;BME280;18669;53.356;-1.464;2022-12-07T00:26:20;101521.03;;;4.42;100.00
29839;BME280;18669;53.356;-1.464;2022-12-07T00:28:47;101516.59;;;4.36;100.00
29839;BME280;18669;53.356;-1.464;2022-12-07T00:31:16;101515.63;;;4.32;100.00
29839;BME280;18669;53.356;-1.464;2022-12-07T00:33:42;101519.72;;;4.20;100.00
29839;BME280;18669;53.356;-1.464;2022-12-07T00:36:12;101510.28;;;4.25;100.00
29839;BME280;18669;53.356;-1.464;2022-12-07T00:38:39;101515.22;;;4.11;100.00
29839;BME280;18669;53.356;-1.464;2022-12-07T00:41:14;101521.53;;;4.24;100.00
29839;BME280;18669;53.356;-1.464;2022-12-07T00:43:41;101515.22;;;4.12;100.00
29839;BME280;18669;53.356;-1.464;2022-12-07T00:46:08;101502.13;;;4.08;100.00
29839;BME280;18669;53.356;-1.464;2022-12-07T00:48:34;101515.41;;;4.22;100.00
29839;BME280;18669;53.356;-1.464;2022-12-07T00:51:00;101517.63;;;4.01;100.00
29839;BME280;18669;53.356;-1.464;2022-12-07T00:53:27;101511.50;;;3.99;100.00
29839;BME280;18669;53.356;-1.464;2022-12-07T00:55:53;101514.81;;;3.92;100.00
29839;BME280;18669;53.356;-1.464;2022-12-07T00:58:21;101516.56;;;3.93;100.00
29839;BME280;18669;53.356;-1.464;2022-12-07T01:00:48;101515.72;;;3.93;100.00
29839;BME280;18669;53.356;-1.464;2022-12-07T01:03:15;101508.94;;;4.01;100.00
29839;BME280;18669;53.356;-1.464;2022-12-07T01:05:52;101501.22;;;4.07;100.00
29839;BME280;18669;53.356;-1.464;2022-12-07T01:08:19;101504.38;;;3.91;100.00
29839;BME280;18669;53.356;-1.464;2022-12-07T01:10:46;101500.94;;;3.93;100.00
29839;BME280;18669;53.356;-1.464;2022-12-07T01:13:12;101499.88;;;3.83;100.00
29839;BME280;18669;53.356;-1.464;2022-12-07T01:15:43;101490.31;;;3.81;100.00
29839;BME280;18669;53.356;-1.464;2022-12-07T01:18:11;101492.63;;;3.68;100.00
29839;BME280;18669;53.356;-1.464;2022-12-07T01:20:37;101487.97;;;3.53;100.00
29839;BME280;18669;53.356;-1.464;2022-12-07T01:23:04;101498.31;;;3.50;100.00
29839;BME280;18669;53.356;-1.464;2022-12-07T01:25:31;101490.28;;;3.41;100.00
29839;BME280;18669;53.356;-1.464;2022-12-07T01:27:57;101486.59;;;3.31;100.00
29839;BME280;18669;53.356;-1.464;2022-12-07T01:30:23;101483.06;;;3.27;100.00
29839;BME280;18669;53.356;-1.464;2022-12-07T01:32:50;101488.88;;;3.17;100.00
29839;BME280;18669;53.356;-1.464;2022-12-07T01:35:16;101480.91;;;3.09;100.00
29839;BME280;18669;53.356;-1.464;2022-12-07T01:37:42;101479.94;;;3.06;100.00
29839;BME280;18669;53.356;-1.464;2022-12-07T01:40:10;101477.53;;;3.13;100.00
29839;BME280;18669;53.356;-1.464;2022-12-07T01:42:36;101479.75;;;2.98;100.00
29839;BME280;18669;53.356;-1.464;2022-12-07T01:47:55;101486.69;;;2.97;100.00
29839;BME280;18669;53.356;-1.464;2022-12-07T01:50:26;101483.88;;;2.90;100.00
29839;BME280;18669;53.356;-1.464;2022-12-07T01:52:54;101476.91;;;2.87;100.00
29839;BME280;18669;53.356;-1.464;2022-12-07T01:55:22;101475.78;;;2.77;100.00
29839;BME280;18669;53.356;-1.464;2022-12-07T01:57:54;101481.34;;;2.91;100.00
29839;BME280;18669;53.356;-1.464;2022-12-07T02:00:20;101474.91;;;2.77;100.00
29839;BME280;18669;53.356;-1.464;2022-12-07T02:03:11;101474.63;;;3.01;100.00
29839;BME280;18669;53.356;-1.464;2022-12-07T02:05:49;101478.94;;;3.01;100.00
29839;BME280;18669;53.356;-1.464;2022-12-07T02:08:20;101486.06;;;3.08;100.00
29839;BME280;18669;53.356;-1.464;2022-12-07T02:10:47;101479.91;;;3.04;100.00
29839;BME280;18669;53.356;-1.464;2022-12-07T02:13:18;101482.00;;;3.21;100.00
29839;BME280;18669;53.356;-1.464;2022-12-07T02:16:13;101485.66;;;3.27;100.00
29839;BME280;18669;53.356;-1.464;2022-12-07T02:21:30;101477.66;;;3.20;100.00
29839;BME280;18669;53.356;-1.464;2022-12-07T02:24:21;101485.75;;;3.32;100.00
29839;BME280;18669;53.356;-1.464;2022-12-07T02:30:01;101473.59;;;3.31;100.00
29839;BME280;18669;53.356;-1.464;2022-12-07T02:33:12;101465.31;;;3.11;100.00
29839;BME280;18669;53.356;-1.464;2022-12-07T02:35:21;101464.47;;;3.10;100.00
29839;BME280;18669;53.356;-1.464;2022-12-07T02:40:51;101469.50;;;3.04;100.00
29839;BME280;18669;53.356;-1.464;2022-12-07T02:43:30;101471.88;;;2.95;100.00
29839;BME280;18669;53.356;-1.464;2022-12-07T02:46:02;101455.22;;;2.87;100.00
29839;BME280;18669;53.356;-1.464;2022-12-07T02:48:31;101462.63;;;2.71;100.00
29839;BME280;18669;53.356;-1.464;2022-12-07T02:50:57;101456.19;;;2.55;100.00
29839;BME280;18669;53.356;-1.464;2022-12-07T03:07:14;101441.03;;;2.38;100.00
29839;BME280;18669;53.356;-1.464;2022-12-07T03:10:07;101446.88;;;2.31;100.00
29839;BME280;18669;53.356;-1.464;2022-12-07T03:13:05;101442.34;;;2.22;100.00
29839;BME280;18669;53.356;-1.464;2022-12-07T03:15:48;101433.63;;;2.20;100.00
29839;BME280;18669;53.356;-1.464;2022-12-07T03:18:20;101426.38;;;2.08;100.00
29839;BME280;18669;53.356;-1.464;2022-12-07T03:20:51;101437.66;;;2.09;100.00
29839;BME280;18669;53.356;-1.464;2022-12-07T03:23:20;101430.47;;;2.00;100.00
29839;BME280;18669;53.356;-1.464;2022-12-07T03:25:51;101441.66;;;1.98;100.00
29839;BME280;18669;53.356;-1.464;2022-12-07T03:28:22;101431.94;;;1.90;100.00
29839;BME280;18669;53.356;-1.464;2022-12-07T03:30:59;101421.47;;;1.87;100.00
29839;BME280;18669;53.356;-1.464;2022-12-07T03:33:31;101425.72;;;1.84;100.00
29839;BME280;18669;53.356;-1.464;2022-12-07T03:36:05;101422.06;;;1.77;100.00
29839;BME280;18669;53.356;-1.464;2022-12-07T03:38:39;101422.00;;;1.74;100.00
29839;BME280;18669;53.356;-1.464;2022-12-07T03:41:22;101424.72;;;1.78;100.00
29839;BME280;18669;53.356;-1.464;2022-12-07T03:43:50;101422.44;;;1.59;100.00
29839;BME280;18669;53.356;-1.464;2022-12-07T03:49:09;101418.66;;;1.49;100.00
29839;BME280;18669;53.356;-1.464;2022-12-07T03:57:21;101415.97;;;1.46;100.00
29839;BME280;18669;53.356;-1.464;2022-12-07T03:59:49;101414.94;;;1.39;100.00
29839;BME280;18669;53.356;-1.464;2022-12-07T04:02:16;101414.72;;;1.33;100.00
29839;BME280;18669;53.356;-1.464;2022-12-07T04:04:43;101413.78;;;1.29;100.00
29839;BME280;18669;53.356;-1.464;2022-12-07T04:07:12;101411.91;;;1.25;100.00
29839;BME280;18669;53.356;-1.464;2022-12-07T04:09:39;101408.38;;;1.22;100.00
29839;BME280;18669;53.356;-1.464;2022-12-07T04:12:05;101406.34;;;1.13;100.00
29839;BME280;18669;53.356;-1.464;2022-12-07T04:14:31;101400.34;;;1.14;100.00
29839;BME280;18669;53.356;-1.464;2022-12-07T04:16:58;101400.41;;;1.15;100.00
29839;BME280;18669;53.356;-1.464;2022-12-07T04:19:30;101393.47;;;1.14;100.00
29839;BME280;18669;53.356;-1.464;2022-12-07T04:21:57;101396.19;;;1.19;100.00
29839;BME280;18669;53.356;-1.464;2022-12-07T04:24:24;101402.72;;;1.08;100.00
29839;BME280;18669;53.356;-1.464;2022-12-07T04:26:50;101400.91;;;1.03;100.00
29839;BME280;18669;53.356;-1.464;2022-12-07T04:29:16;101391.91;;;1.21;100.00
29839;BME280;18669;53.356;-1.464;2022-12-07T04:31:43;101387.66;;;0.94;100.00
29839;BME280;18669;53.356;-1.464;2022-12-07T04:34:10;101393.16;;;1.05;100.00
29839;BME280;18669;53.356;-1.464;2022-12-07T04:36:37;101390.53;;;1.03;100.00
29839;BME280;18669;53.356;-1.464;2022-12-07T04:39:04;101393.06;;;1.02;100.00
29839;BME280;18669;53.356;-1.464;2022-12-07T04:41:30;101397.03;;;0.91;100.00
29839;BME280;18669;53.356;-1.464;2022-12-07T04:43:58;101389.34;;;0.94;100.00
29839;BME280;18669;53.356;-1.464;2022-12-07T04:46:26;101388.44;;;0.92;100.00
29839;BME280;18669;53.356;-1.464;2022-12-07T04:48:54;101387.78;;;0.99;100.00
29839;BME280;18669;53.356;-1.464;2022-12-07T04:51:24;101391.22;;;0.98;100.00
29839;BME280;18669;53.356;-1.464;2022-12-07T04:53:51;101380.56;;;0.88;100.00
29839;BME280;18669;53.356;-1.464;2022-12-07T04:56:21;101383.09;;;0.85;100.00
29839;BME280;18669;53.356;-1.464;2022-12-07T04:58:47;101389.13;;;0.86;100.00
29839;BME280;18669;53.356;-1.464;2022-12-07T05:01:15;101385.06;;;0.94;100.00
29839;BME280;18669;53.356;-1.464;2022-12-07T05:03:42;101384.00;;;0.87;100.00
29839;BME280;18669;53.356;-1.464;2022-12-07T05:06:09;101396.91;;;0.86;100.00
29839;BME280;18669;53.356;-1.464;2022-12-07T05:08:36;101382.16;;;0.83;100.00
29839;BME280;18669;53.356;-1.464;2022-12-07T05:11:03;101383.94;;;0.86;100.00
29839;BME280;18669;53.356;-1.464;2022-12-07T05:13:30;101389.75;;;0.79;100.00
29839;BME280;18669;53.356;-1.464;2022-12-07T05:15:56;101389.34;;;0.94;100.00
29839;BME280;18669;53.356;-1.464;2022-12-07T05:18:21;101393.91;;;0.73;100.00
29839;BME280;18669;53.356;-1.464;2022-12-07T05:20:48;101394.84;;;0.76;100.00
29839;BME280;18669;53.356;-1.464;2022-12-07T05:23:14;101394.00;;;0.77;100.00
29839;BME280;18669;53.356;-1.464;2022-12-07T05:25:40;101391.38;;;0.75;100.00
29839;BME280;18669;53.356;-1.464;2022-12-07T05:28:06;101392.31;;;0.77;100.00
29839;BME280;18669;53.356;-1.464;2022-12-07T05:30:32;101381.75;;;0.71;100.00
29839;BME280;18669;53.356;-1.464;2022-12-07T05:32:58;101388.81;;;0.77;100.00
29839;BME280;18669;53.356;-1.464;2022-12-07T05:35:24;101395.84;;;0.79;100.00
29839;BME280;18669;53.356;-1.464;2022-12-07T05:37:50;101380.09;;;0.73;100.00
29839;BME280;18669;53.356;-1.464;2022-12-07T05:40:17;101388.81;;;0.77;100.00
29839;BME280;18669;53.356;-1.464;2022-12-07T05:42:44;101390.56;;;0.76;100.00
29839;BME280;18669;53.356;-1.464;2022-12-07T05:45:11;101381.84;;;0.74;100.00
29839;BME280;18669;53.356;-1.464;2022-12-07T05:47:37;101398.31;;;0.76;100.00
29839;BME280;18669;53.356;-1.464;2022-12-07T05:50:04;101378.63;;;0.81;100.00
29839;BME280;18669;53.356;-1.464;2022-12-07T05:52:30;101384.38;;;0.72;100.00
29839;BME280;18669;53.356;-1.464;2022-12-07T05:54:56;101380.63;;;0.90;100.00
29839;BME280;18669;53.356;-1.464;2022-12-07T05:57:22;101385.16;;;0.70;100.00
29839;BME280;18669;53.356;-1.464;2022-12-07T05:59:49;101383.38;;;0.67;100.00
29839;BME280;18669;53.356;-1.464;2022-12-07T06:02:16;101386.13;;;0.73;100.00
29839;BME280;18669;53.356;-1.464;2022-12-07T06:04:45;101380.19;;;0.76;100.00
29839;BME280;18669;53.356;-1.464;2022-12-07T06:07:14;101386.22;;;0.77;100.00
29839;BME280;18669;53.356;-1.464;2022-12-07T06:09:40;101375.53;;;0.66;100.00
29839;BME280;18669;53.356;-1.464;2022-12-07T06:12:10;101383.75;;;0.80;100.00
29839;BME280;18669;53.356;-1.464;2022-12-07T06:14:56;101373.75;;;0.63;100.00
29839;BME280;18669;53.356;-1.464;2022-12-07T06:17:22;101371.38;;;0.71;100.00
29839;BME280;18669;53.356;-1.464;2022-12-07T06:19:48;101371.06;;;0.87;100.00
29839;BME280;18669;53.356;-1.464;2022-12-07T06:22:14;101369.50;;;0.65;100.00
29839;BME280;18669;53.356;-1.464;2022-12-07T06:24:41;101373.13;;;0.70;100.00
29839;BME280;18669;53.356;-1.464;2022-12-07T06:27:11;101373.88;;;0.68;100.00
29839;BME280;18669;53.356;-1.464;2022-12-07T06:29:37;101373.88;;;0.68;100.00
29839;BME280;18669;53.356;-1.464;2022-12-07T06:32:03;101369.63;;;0.70;100.00
29839;BME280;18669;53.356;-1.464;2022-12-07T06:34:30;101371.28;;;0.68;100.00
29839;BME280;18669;53.356;-1.464;2022-12-07T06:36:56;101372.09;;;0.65;100.00
29839;BME280;18669;53.356;-1.464;2022-12-07T06:39:25;101368.94;;;0.76;100.00
29839;BME280;18669;53.356;-1.464;2022-12-07T06:41:52;101370.34;;;0.66;100.00
29839;BME280;18669;53.356;-1.464;2022-12-07T06:44:18;101361.84;;;0.70;100.00
29839;BME280;18669;53.356;-1.464;2022-12-07T06:46:44;101362.44;;;0.61;100.00
29839;BME280;18669;53.356;-1.464;2022-12-07T06:49:10;101364.97;;;0.59;100.00
29839;BME280;18669;53.356;-1.464;2022-12-07T06:51:37;101365.69;;;0.55;100.00
29839;BME280;18669;53.356;-1.464;2022-12-07T06:54:10;101363.31;;;0.62;100.00
29839;BME280;18669;53.356;-1.464;2022-12-07T06:56:37;101364.00;;;0.56;100.00
29839;BME280;18669;53.356;-1.464;2022-12-07T06:59:04;101365.88;;;0.60;100.00
29839;BME280;18669;53.356;-1.464;2022-12-07T07:01:31;101355.44;;;0.58;100.00
29839;BME280;18669;53.356;-1.464;2022-12-07T07:03:57;101363.03;;;0.52;100.00
29839;BME280;18669;53.356;-1.464;2022-12-07T07:06:23;101365.47;;;0.48;100.00
29839;BME280;18669;53.356;-1.464;2022-12-07T07:08:49;101363.09;;;0.54;100.00
29839;BME280;18669;53.356;-1.464;2022-12-07T07:11:16;101359.97;;;0.38;100.00
29839;BME280;18669;53.356;-1.464;2022-12-07T07:13:42;101361.81;;;0.41;100.00
29839;BME280;18669;53.356;-1.464;2022-12-07T07:16:08;101365.97;;;0.37;100.00
29839;BME280;18669;53.356;-1.464;2022-12-07T07:18:35;101349.47;;;0.34;100.00
29839;BME280;18669;53.356;-1.464;2022-12-07T07:21:02;101356.44;;;0.36;100.00
29839;BME280;18669;53.356;-1.464;2022-12-07T07:23:29;101358.06;;;0.33;100.00
29839;BME280;18669;53.356;-1.464;2022-12-07T07:25:55;101359.97;;;0.38;100.00
29839;BME280;18669;53.356;-1.464;2022-12-07T07:28:21;101352.59;;;0.23;100.00
29839;BME280;18669;53.356;-1.464;2022-12-07T07:30:47;101357.72;;;0.22;100.00
29839;BME280;18669;53.356;-1.464;2022-12-07T07:33:13;101352.44;;;0.19;100.00
29839;BME280;18669;53.356;-1.464;2022-12-07T07:35:40;101350.78;;;0.21;100.00
29839;BME280;18669;53.356;-1.464;2022-12-07T07:38:06;101343.88;;;0.21;100.00
29839;BME280;18669;53.356;-1.464;2022-12-07T07:40:33;101342.91;;;0.18;100.00
29839;BME280;18669;53.356;-1.464;2022-12-07T07:43:00;101349.97;;;0.22;100.00
29839;BME280;18669;53.356;-1.464;2022-12-07T07:45:27;101347.31;;;0.20;100.00
29839;BME280;18669;53.356;-1.464;2022-12-07T07:47:53;101350.72;;;0.19;100.00
29839;BME280;18669;53.356;-1.464;2022-12-07T07:50:19;101346.91;;;0.34;100.00
29839;BME280;18669;53.356;-1.464;2022-12-07T07:52:45;101341.25;;;0.20;100.00
29839;BME280;18669;53.356;-1.464;2022-12-07T07:55:12;101344.69;;;0.19;100.00
29839;BME280;18669;53.356;-1.464;2022-12-07T07:57:39;101337.72;;;0.16;100.00
29839;BME280;18669;53.356;-1.464;2022-12-07T08:00:10;101339.53;;;0.20;100.00
29839;BME280;18669;53.356;-1.464;2022-12-07T08:02:38;101339.34;;;0.14;100.00
29839;BME280;18669;53.356;-1.464;2022-12-07T08:05:04;101341.88;;;0.12;100.00
29839;BME280;18669;53.356;-1.464;2022-12-07T08:07:31;101339.34;;;0.14;100.00
29839;BME280;18669;53.356;-1.464;2022-12-07T08:09:57;101344.63;;;0.17;100.00
29839;BME280;18669;53.356;-1.464;2022-12-07T08:12:23;101345.63;;;0.21;100.00
29839;BME280;18669;53.356;-1.464;2022-12-07T08:14:49;101346.38;;;0.18;100.00
29839;BME280;18669;53.356;-1.464;2022-12-07T08:17:15;101341.97;;;0.16;100.00
29839;BME280;18669;53.356;-1.464;2022-12-07T08:19:41;101346.44;;;0.20;100.00
29839;BME280;18669;53.356;-1.464;2022-12-07T08:22:07;101339.53;;;0.20;100.00
29839;BME280;18669;53.356;-1.464;2022-12-07T08:24:34;101340.66;;;0.27;100.00
29839;BME280;18669;53.356;-1.464;2022-12-07T08:27:00;101336.13;;;0.21;100.00
29839;BME280;18669;53.356;-1.464;2022-12-07T08:29:26;101340.66;;;0.27;100.00
29839;BME280;18669;53.356;-1.464;2022-12-07T08:31:52;101341.47;;;0.26;100.00
29839;BME280;18669;53.356;-1.464;2022-12-07T08:34:19;101345.94;;;0.30;100.00
29839;BME280;18669;53.356;-1.464;2022-12-07T08:36:45;101339.81;;;0.28;100.00
29839;BME280;18669;53.356;-1.464;2022-12-07T08:39:11;101348.56;;;0.32;100.00
29839;BME280;18669;53.356;-1.464;2022-12-07T08:41:37;101351.84;;;0.27;100.00
29839;BME280;18669;53.356;-1.464;2022-12-07T08:44:04;101350.28;;;0.31;100.00
29839;BME280;18669;53.356;-1.464;2022-12-07T08:46:48;101341.19;;;0.44;100.00
29839;BME280;18669;53.356;-1.464;2022-12-07T08:49:27;101347.19;;;0.43;100.00
29839;BME280;18669;53.356;-1.464;2022-12-07T08:51:56;101347.09;;;0.40;100.00
29839;BME280;18669;53.356;-1.464;2022-12-07T08:54:22;101349.44;;;0.59;100.00
29839;BME280;18669;53.356;-1.464;2022-12-07T08:56:49;101349.31;;;0.55;100.00
29839;BME280;18669;53.356;-1.464;2022-12-07T08:59:17;101346.94;;;0.63;100.00
29839;BME280;18669;53.356;-1.464;2022-12-07T09:01:45;101347.00;;;0.64;100.00
29839;BME280;18669;53.356;-1.464;2022-12-07T09:04:11;101344.47;;;0.66;100.00
29839;BME280;18669;53.356;-1.464;2022-12-07T09:06:38;101340.59;;;0.80;100.00
29839;BME280;18669;53.356;-1.464;2022-12-07T09:09:04;101341.53;;;0.82;100.00
29839;BME280;18669;53.356;-1.464;2022-12-07T09:11:32;101333.88;;;0.87;100.00
29839;BME280;18669;53.356;-1.464;2022-12-07T09:13:58;101337.38;;;0.87;100.00
29839;BME280;18669;53.356;-1.464;2022-12-07T09:16:24;101334.78;;;0.87;100.00
29839;BME280;18669;53.356;-1.464;2022-12-07T09:18:51;101331.53;;;0.95;100.00
29839;BME280;18669;53.356;-1.464;2022-12-07T09:21:17;101330.56;;;0.91;100.00
29839;BME280;18669;53.356;-1.464;2022-12-07T09:23:43;101322.00;;;0.94;100.00
29839;BME280;18669;53.356;-1.464;2022-12-07T09:26:10;101318.63;;;0.96;100.00
29839;BME280;18669;53.356;-1.464;2022-12-07T09:28:37;101321.31;;;0.99;100.00
29839;BME280;18669;53.356;-1.464;2022-12-07T09:31:04;101318.91;;;1.06;100.00
29839;BME280;18669;53.356;-1.464;2022-12-07T09:33:31;101316.31;;;1.06;100.00
29839;BME280;18669;53.356;-1.464;2022-12-07T09:35:57;101322.50;;;1.11;100.00
29839;BME280;18669;53.356;-1.464;2022-12-07T09:38:23;101326.94;;;1.15;100.00
29839;BME280;18669;53.356;-1.464;2022-12-07T09:40:50;101321.81;;;1.16;100.00
29839;BME280;18669;53.356;-1.464;2022-12-07T09:43:23;101317.03;;;1.30;100.00
29839;BME280;18669;53.356;-1.464;2022-12-07T09:45:52;101322.34;;;1.35;100.00
29839;BME280;18669;53.356;-1.464;2022-12-07T09:48:27;101316.59;;;1.45;100.00
29839;BME280;18669;53.356;-1.464;2022-12-07T09:50:57;101315.03;;;1.52;100.00
29839;BME280;18669;53.356;-1.464;2022-12-07T09:53:29;101316.00;;;1.88;100.00
29839;BME280;18669;53.356;-1.464;2022-12-07T09:55:56;101316.88;;;2.23;100.00
29839;BME280;18669;53.356;-1.464;2022-12-07T09:58:28;101310.34;;;3.18;100.00
29839;BME280;18669;53.356;-1.464;2022-12-07T10:03:38;101299.41;;;4.89;100.00
29839;BME280;18669;53.356;-1.464;2022-12-07T10:06:06;101310.31;;;5.28;100.00
29839;BME280;18669;53.356;-1.464;2022-12-07T10:08:33;101315.34;;;5.14;100.00
29839;BME280;18669;53.356;-1.464;2022-12-07T10:11:01;101312.38;;;4.86;100.00
29839;BME280;18669;53.356;-1.464;2022-12-07T10:13:43;101310.09;;;4.48;100.00
29839;BME280;18669;53.356;-1.464;2022-12-07T10:16:31;101308.59;;;4.10;100.00
29839;BME280;18669;53.356;-1.464;2022-12-07T10:19:21;101301.75;;;3.66;100.00
29839;BME280;18669;53.356;-1.464;2022-12-07T10:22:02;101304.03;;;3.49;100.00
29839;BME280;18669;53.356;-1.464;2022-12-07T10:24:29;101302.59;;;3.21;100.00
29839;BME280;18669;53.356;-1.464;2022-12-07T10:26:55;101299.81;;;3.11;100.00
29839;BME280;18669;53.356;-1.464;2022-12-07T10:29:31;101291.28;;;3.19;100.00
29839;BME280;18669;53.356;-1.464;2022-12-07T10:32:00;101290.28;;;3.10;100.00
29839;BME280;18669;53.356;-1.464;2022-12-07T10:34:36;101291.25;;;3.17;100.00
29839;BME280;18669;53.356;-1.464;2022-12-07T10:40:00;101290.81;;;3.38;100.00
29839;BME280;18669;53.356;-1.464;2022-12-07T10:42:30;101287.38;;;3.39;100.00
29839;BME280;18669;53.356;-1.464;2022-12-07T10:45:13;101284.00;;;3.45;100.00
29839;BME280;18669;53.356;-1.464;2022-12-07T10:48:11;101287.56;;;3.49;100.00
29839;BME280;18669;53.356;-1.464;2022-12-07T10:51:08;101279.03;;;3.57;100.00
29839;BME280;18669;53.356;-1.464;2022-12-07T11:07:21;101255.94;;;3.76;100.00
29839;BME280;18669;53.356;-1.464;2022-12-07T11:09:57;101255.09;;;3.77;100.00
29839;BME280;18669;53.356;-1.464;2022-12-07T11:21:48;101237.09;;;3.90;100.00
29839;BME280;18669;53.356;-1.464;2022-12-07T11:24:27;101227.53;;;3.88;100.00
29839;BME280;18669;53.356;-1.464;2022-12-07T11:27:17;101232.00;;;3.96;100.00
29839;BME280;18669;53.356;-1.464;2022-12-07T11:38:20;101213.28;;;4.22;100.00
29839;BME280;18669;53.356;-1.464;2022-12-07T11:40:49;101210.00;;;4.33;100.00
29839;BME280;18669;53.356;-1.464;2022-12-07T11:43:27;101211.22;;;4.59;100.00
29839;BME280;18669;53.356;-1.464;2022-12-07T11:46:09;101207.94;;;4.72;100.00
29839;BME280;18669;53.356;-1.464;2022-12-07T11:48:38;101204.50;;;4.78;100.00
29839;BME280;18669;53.356;-1.464;2022-12-07T11:51:12;101197.44;;;5.45;100.00
29839;BME280;18669;53.356;-1.464;2022-12-07T11:56:13;101178.91;;;9.34;97.53
29839;BME280;18669;53.356;-1.464;2022-12-07T11:58:46;101169.31;;;11.03;67.21
29839;BME280;18669;53.356;-1.464;2022-12-07T12:01:18;101168.38;;;12.20;58.40
29839;BME280;18669;53.356;-1.464;2022-12-07T12:04:15;101149.44;;;13.25;52.40
29839;BME280;18669;53.356;-1.464;2022-12-07T12:06:47;101143.47;;;14.24;50.12
29839;BME280;18669;53.356;-1.464;2022-12-07T12:09:15;101135.03;;;15.31;46.79
29839;BME280;18669;53.356;-1.464;2022-12-07T12:17:11;101122.91;;;17.65;38.80
29839;BME280;18669;53.356;-1.464;2022-12-07T12:23:00;101109.53;;;17.01;39.84
29839;BME280;18669;53.356;-1.464;2022-12-07T12:25:43;101107.19;;;16.69;38.89
29839;BME280;18669;53.356;-1.464;2022-12-07T12:28:27;101104.09;;;17.26;38.75
29839;BME280;18669;53.356;-1.464;2022-12-07T12:31:12;101104.91;;;17.28;37.38
29839;BME280;18669;53.356;-1.464;2022-12-07T12:33:50;101102.03;;;17.76;36.89
29839;BME280;18669;53.356;-1.464;2022-12-07T12:36:28;101098.41;;;18.58;37.37
29839;BME280;18669;53.356;-1.464;2022-12-07T12:46:54;101083.50;;;17.94;35.36
29839;BME280;18669;53.356;-1.464;2022-12-07T12:51:49;101071.50;;;18.25;34.72
29839;BME280;18669;53.356;-1.464;2022-12-07T12:57:45;101065.84;;;15.91;38.46
29839;BME280;18669;53.356;-1.464;2022-12-07T13:02:35;101066.91;;;13.15;42.57
29839;BME280;18669;53.356;-1.464;2022-12-07T13:10:43;101100.09;;;9.37;50.44
29839;BME280;18669;53.356;-1.464;2022-12-07T13:28:51;101060.66;;;6.88;67.67
29839;BME280;18669;53.356;-1.464;2022-12-07T13:31:36;101066.75;;;6.73;69.69
29839;BME280;18669;53.356;-1.464;2022-12-07T13:34:27;101059.72;;;6.50;72.50
29839;BME280;18669;53.356;-1.464;2022-12-07T13:36:51;101055.34;;;6.54;80.79
29839;BME280;18669;53.356;-1.464;2022-12-07T13:39:24;101045.78;;;6.56;79.50
29839;BME280;18669;53.356;-1.464;2022-12-07T13:41:58;101055.34;;;6.54;79.01
29839;BME280;18669;53.356;-1.464;2022-12-07T13:44:27;101062.28;;;6.33;80.44
29839;BME280;18669;53.356;-1.464;2022-12-07T13:49:31;101064.00;;;6.28;83.43
29839;BME280;18669;53.356;-1.464;2022-12-07T13:54:55;101055.22;;;6.21;79.49
29839;BME280;18669;53.356;-1.464;2022-12-07T13:57:24;101049.06;;;6.05;81.23
29839;BME280;18669;53.356;-1.464;2022-12-07T13:59:51;101048.06;;;5.89;81.28
29839;BME280;18669;53.356;-1.464;2022-12-07T14:02:33;101042.03;;;6.00;85.95
29839;BME280;18669;53.356;-1.464;2022-12-07T14:05:26;101043.78;;;5.97;87.34
29839;BME280;18669;53.356;-1.464;2022-12-07T14:07:58;101031.53;;;5.90;86.81
29839;BME280;18669;53.356;-1.464;2022-12-07T14:13:03;101034.97;;;5.78;85.93
29839;BME280;18669;53.356;-1.464;2022-12-07T14:15:51;101028.91;;;5.86;83.35
29839;BME280;18669;53.356;-1.464;2022-12-07T14:21:24;101002.72;;;5.68;89.02
29839;BME280;18669;53.356;-1.464;2022-12-07T14:24:16;100998.34;;;5.69;87.26
29839;BME280;18669;53.356;-1.464;2022-12-07T14:26:50;101007.84;;;5.56;90.61
29839;BME280;18669;53.356;-1.464;2022-12-07T14:31:52;100999.09;;;5.48;91.13
29839;BME280;18669;53.356;-1.464;2022-12-07T14:34:22;101005.22;;;5.48;89.23
29839;BME280;18669;53.356;-1.464;2022-12-07T14:36:49;101014.69;;;5.35;90.85
29839;BME280;18669;53.356;-1.464;2022-12-07T14:39:16;101002.38;;;5.19;94.14
29839;BME280;18669;53.356;-1.464;2022-12-07T14:41:42;101008.56;;;5.30;96.77
29839;BME280;18669;53.356;-1.464;2022-12-07T14:44:20;101010.16;;;5.13;99.06
29839;BME280;18669;53.356;-1.464;2022-12-07T14:46:51;100999.72;;;5.10;97.39
29839;BME280;18669;53.356;-1.464;2022-12-07T14:49:17;100992.72;;;5.02;97.74
29839;BME280;18669;53.356;-1.464;2022-12-07T14:51:46;100994.47;;;5.08;98.56
29839;BME280;18669;53.356;-1.464;2022-12-07T14:54:18;100989.28;;;5.06;98.66
29839;BME280;18669;53.356;-1.464;2022-12-07T14:56:45;100989.16;;;4.92;100.00
29839;BME280;18669;53.356;-1.464;2022-12-07T14:59:17;100999.63;;;4.99;100.00
29839;BME280;18669;53.356;-1.464;2022-12-07T15:01:44;101002.13;;;4.88;100.00
29839;BME280;18669;53.356;-1.464;2022-12-07T15:04:10;100993.47;;;4.87;100.00
29839;BME280;18669;53.356;-1.464;2022-12-07T15:06:37;100991.66;;;4.82;100.00
29839;BME280;18669;53.356;-1.464;2022-12-07T15:09:06;100997.69;;;4.76;100.00